KACV/ACV METAR and TAF weather

Enter ICAO airport designator
Station Type Date Time Source
KACV METAR 2018/09/20 17:53 UTC NOAA

KACV 201753Z AUTO 29005KT 10SM CLR 14/11 A3002 RMK AO2 SLP171 T01390111 10139 20083 58001


Station Type Date Time Source
KACV Decoded METAR 2018/09/20 17:53 UTC NOAA

ARCATA/EUREKA ARCATA AIRPORT, CA, United States (KACV) 40-59N 124-06W 67M
Sep 20, 2018 - 01:53 PM EDT / 2018.09.20 1753 UTC
Wind: from the WNW (290 degrees) at 6 MPH (5 KT):0
Visibility: 10 mile(s):0
Sky conditions: clear
Temperature: 57.0 F (13.9 C)
Dew Point: 52.0 F (11.1 C)
Relative Humidity: 83%
Pressure (altimeter): 30.02 in. Hg (1016 hPa)
Pressure tendency: 0.00 inches (0.1 hPa) lower than three hours ago
ob: KACV 201753Z AUTO 29005KT 10SM CLR 14/11 A3002 RMK AO2 SLP171 T01390111 10139 20083 58001
cycle: 18

Station Type Date Time Source
KACV TAF 2018/09/20 18:39 UTC NOAA

TAF KACV 201736Z 2018/2118 31007KT P6SM BKN006 BKN010
TEMPO 2018/2019 SCT006
FM201900 32010KT P6SM FEW009
FM202100 32010G16KT P6SM SKC
FM210400 VRB05KT P6SM SCT011
FM210600 VRB04KT 6SM BR BKN009
FM211200 VRB03KT 5SM BR OVC006


Example: see airport list